Time;durP1;ratioP1;P1;durP2;ratioP2;P2;SDS_P1;SDS_P2;PMS_P1;PMS_P2;Temp;Humidity;BMP_temperature;BMP_pressure;BME280_temperature;BME280_humidity;BME280_pressure;Samples;Min_cycle;Max_cycle;Signal;HPM_P1;HPM_P2
2022/04/21 00:00:55;;;;;;;1.63;1.10;;;9.10;99.90;;;;;;5026401;28;20061;-60
2022/04/21 00:03:22;;;;;;;2.65;1.15;;;9.10;99.90;;;;;;5031422;28;20046;-59
2022/04/21 00:05:49;;;;;;;1.70;1.48;;;9.10;99.90;;;;;;5031071;28;20135;-60
2022/04/21 00:08:17;;;;;;;2.20;1.15;;;9.00;99.90;;;;;;5036209;28;20085;-59
2022/04/21 00:10:44;;;;;;;2.28;1.30;;;9.00;99.90;;;;;;5034933;28;20460;-59
2022/04/21 00:13:11;;;;;;;2.05;1.27;;;9.00;99.90;;;;;;5030379;28;20095;-60
2022/04/21 00:15:38;;;;;;;2.55;1.58;;;9.00;99.90;;;;;;5029168;28;20057;-60
2022/04/21 00:18:05;;;;;;;2.08;1.25;;;9.00;99.90;;;;;;5035437;28;20077;-60
2022/04/21 00:20:34;;;;;;;2.00;0.90;;;9.00;99.90;;;;;;5030363;28;20084;-59
2022/04/21 00:25:46;;;;;;;2.20;1.02;;;8.90;99.90;;;;;;5029859;28;20045;-59
2022/04/21 00:28:13;;;;;;;1.10;0.95;;;9.00;99.90;;;;;;5023086;28;20409;-59
2022/04/21 00:30:39;;;;;;;1.33;1.00;;;8.90;99.90;;;;;;5028207;28;20045;-59
2022/04/21 00:33:06;;;;;;;1.75;1.30;;;8.90;99.90;;;;;;5025461;28;20151;-60
2022/04/21 00:35:33;;;;;;;1.75;1.10;;;8.90;99.90;;;;;;5037214;28;20071;-59
2022/04/21 00:38:00;;;;;;;2.63;1.20;;;8.90;99.90;;;;;;5032298;28;20124;-60
2022/04/21 00:40:28;;;;;;;2.40;1.30;;;8.80;99.90;;;;;;5032285;28;20124;-59
2022/04/21 00:42:55;;;;;;;1.67;1.17;;;8.80;99.90;;;;;;5028583;28;20132;-60
2022/04/21 00:45:22;;;;;;;1.50;1.13;;;8.80;99.90;;;;;;5037706;28;20072;-60
2022/04/21 00:47:49;;;;;;;1.88;1.30;;;8.70;99.90;;;;;;5029733;28;20052;-60
2022/04/21 00:50:16;;;;;;;3.58;1.60;;;8.70;99.90;;;;;;5035811;28;20137;-59
2022/04/21 00:52:42;;;;;;;1.80;1.20;;;8.70;99.90;;;;;;5010558;28;20229;-60
2022/04/21 00:55:10;;;;;;;2.63;1.30;;;8.70;99.90;;;;;;5030722;28;20566;-59
2022/04/21 00:57:37;;;;;;;2.95;1.15;;;8.60;99.90;;;;;;5035984;28;20140;-60
2022/04/21 01:00:05;;;;;;;2.28;1.25;;;8.60;99.90;;;;;;5032052;28;20041;-59
2022/04/21 01:02:52;;;;;;;2.15;1.27;;;8.50;99.90;;;;;;5028077;28;20051;-60
2022/04/21 01:05:28;;;;;;;1.60;1.02;;;8.50;99.90;;;;;;5026060;28;20111;-60
2022/04/21 01:08:05;;;;;;;1.77;1.00;;;8.50;99.90;;;;;;5029073;28;20083;-61
2022/04/21 01:10:34;;;;;;;1.85;1.15;;;8.40;99.90;;;;;;5035062;28;20057;-60
2022/04/21 01:13:04;;;;;;;1.80;1.48;;;8.40;99.90;;;;;;5036709;28;20128;-59
2022/04/21 01:15:31;;;;;;;1.40;1.10;;;8.40;99.90;;;;;;5030731;28;20091;-60
2022/04/21 01:17:58;;;;;;;1.98;1.40;;;8.40;99.90;;;;;;5029087;28;20049;-60
2022/04/21 01:20:25;;;;;;;2.28;1.10;;;8.30;99.90;;;;;;5028872;28;20216;-60
2022/04/21 01:22:52;;;;;;;1.60;1.15;;;8.20;99.90;;;;;;5029616;28;20052;-60
2022/04/21 01:25:20;;;;;;;1.92;1.27;;;8.20;99.90;;;;;;5029674;28;20134;-59
2022/04/21 01:27:49;;;;;;;1.48;1.15;;;8.20;99.90;;;;;;5030254;28;20080;-60
2022/04/21 01:30:15;;;;;;;1.83;1.30;;;8.20;99.90;;;;;;5025079;28;20046;-60
2022/04/21 01:32:43;;;;;;;2.03;1.27;;;8.10;99.90;;;;;;5011271;28;20346;-60
2022/04/21 01:35:11;;;;;;;1.83;0.82;;;8.00;99.90;;;;;;5036678;28;20084;-60
2022/04/21 01:43:08;;;;;;;2.40;1.25;;;8.00;99.90;;;;;;5031643;28;20088;-59
2022/04/21 01:45:35;;;;;;;1.92;1.20;;;8.00;99.90;;;;;;5030682;28;20109;-60
2022/04/21 01:48:02;;;;;;;2.08;1.50;;;8.00;99.90;;;;;;5029376;28;20132;-59
2022/04/21 01:50:29;;;;;;;1.88;1.13;;;8.00;99.90;;;;;;5029897;28;20076;-60
2022/04/21 01:52:59;;;;;;;1.85;1.30;;;8.00;99.90;;;;;;5033398;28;20092;-60
2022/04/21 01:55:26;;;;;;;2.13;1.20;;;8.00;99.90;;;;;;5031009;28;20073;-59
2022/04/21 01:57:53;;;;;;;1.75;1.33;;;7.90;99.90;;;;;;5029822;28;20143;-59
2022/04/21 02:00:20;;;;;;;1.80;1.30;;;7.90;99.90;;;;;;5030907;28;20081;-60
2022/04/21 02:02:46;;;;;;;1.70;1.30;;;7.90;99.90;;;;;;5027286;28;20072;-59
2022/04/21 02:05:13;;;;;;;2.45;1.50;;;7.90;99.90;;;;;;5028628;28;20662;-60
2022/04/21 02:07:44;;;;;;;2.00;1.30;;;7.90;99.90;;;;;;5036264;28;20491;-60
2022/04/21 02:10:12;;;;;;;1.58;1.13;;;7.80;99.90;;;;;;5037122;28;20053;-58
2022/04/21 02:12:39;;;;;;;1.38;1.17;;;7.80;99.90;;;;;;5030802;28;20136;-59
2022/04/21 02:15:06;;;;;;;1.52;1.15;;;7.80;99.90;;;;;;5030262;28;20434;-59
2022/04/21 02:17:33;;;;;;;2.75;1.30;;;7.80;99.90;;;;;;5027925;28;20128;-60
2022/04/21 02:20:01;;;;;;;2.85;1.70;;;7.80;99.90;;;;;;5030148;28;20136;-59
2022/04/21 02:22:28;;;;;;;1.88;1.20;;;7.70;99.90;;;;;;5034821;28;20136;-59
2022/04/21 02:24:54;;;;;;;2.60;1.55;;;7.60;99.90;;;;;;5036782;28;20110;-59
2022/04/21 02:27:21;;;;;;;1.98;1.27;;;7.50;99.90;;;;;;5033622;28;20127;-59
2022/04/21 02:29:48;;;;;;;2.28;1.38;;;7.50;99.90;;;;;;5037637;28;20657;-60
2022/04/21 02:32:15;;;;;;;2.47;1.40;;;7.50;99.90;;;;;;5034068;28;20132;-59
2022/04/21 02:34:42;;;;;;;2.13;1.40;;;7.50;99.90;;;;;;5030170;28;20485;-60
2022/04/21 02:37:09;;;;;;;1.90;1.30;;;7.50;99.90;;;;;;5029417;28;20555;-59
2022/04/21 02:39:36;;;;;;;1.90;1.25;;;7.60;99.90;;;;;;5029896;28;20624;-60
2022/04/21 02:42:03;;;;;;;2.17;1.33;;;7.60;99.90;;;;;;5027306;28;20136;-59
2022/04/21 02:44:29;;;;;;;1.65;1.30;;;7.60;99.90;;;;;;5029522;28;20132;-59
2022/04/21 02:46:58;;;;;;;2.72;1.20;;;7.50;99.90;;;;;;5028978;28;20047;-60
2022/04/21 02:49:24;;;;;;;2.95;1.40;;;7.50;99.90;;;;;;5028925;28;20167;-59
2022/04/21 02:51:51;;;;;;;2.97;1.48;;;7.50;99.90;;;;;;5010621;28;20560;-59
2022/04/21 02:57:21;;;;;;;2.13;1.30;;;7.40;99.90;;;;;;5029506;28;20048;-61
2022/04/21 02:59:53;;;;;;;2.13;1.63;;;7.40;99.90;;;;;;5035883;28;20140;-60
2022/04/21 03:02:21;;;;;;;1.77;1.50;;;7.20;99.90;;;;;;5033409;28;20095;-59
2022/04/21 03:04:48;;;;;;;2.90;1.20;;;7.10;99.90;;;;;;5029256;28;20044;-59
2022/04/21 03:07:17;;;;;;;1.80;1.30;;;7.20;99.90;;;;;;5029342;28;20083;-60
2022/04/21 03:09:44;;;;;;;3.58;1.70;;;7.20;99.90;;;;;;5028984;28;20171;-60
2022/04/21 03:12:11;;;;;;;3.85;1.50;;;7.20;99.90;;;;;;5029233;28;20037;-60
2022/04/21 03:14:38;;;;;;;3.33;1.55;;;7.20;99.90;;;;;;5037909;28;20136;-59
2022/04/21 03:17:05;;;;;;;2.15;1.33;;;7.20;99.90;;;;;;5035585;28;20128;-59
2022/04/21 03:19:32;;;;;;;3.70;1.50;;;7.20;99.90;;;;;;5031331;28;20044;-60
2022/04/21 03:24:45;;;;;;;2.13;1.33;;;7.20;99.90;;;;;;5036362;28;20080;-59
2022/04/21 03:27:12;;;;;;;2.47;1.63;;;7.20;99.90;;;;;;5036607;28;20159;-59
2022/04/21 03:29:39;;;;;;;7.30;3.22;;;7.20;99.90;;;;;;5036271;28;20128;-59
2022/04/21 03:32:09;;;;;;;1.88;1.20;;;7.20;99.90;;;;;;5030566;28;20128;-59
2022/04/21 03:34:43;;;;;;;1.95;1.25;;;7.10;99.90;;;;;;5029037;28;20568;-59
2022/04/21 03:37:10;;;;;;;;;;;7.10;99.90;;;;;;5028413;28;20115;-59
2022/04/21 03:39:37;;;;;;;2.58;1.60;;;7.00;99.90;;;;;;5029860;28;19932;-59
2022/04/21 03:42:04;;;;;;;2.47;1.40;;;7.00;99.90;;;;;;5027805;28;20042;-59
2022/04/21 03:44:31;;;;;;;3.10;2.03;;;7.00;99.90;;;;;;5028204;28;20045;-59
2022/04/21 03:46:58;;;;;;;1.80;1.20;;;7.00;99.90;;;;;;5027618;28;20041;-59
2022/04/21 03:49:29;;;;;;;2.00;1.40;;;7.00;99.90;;;;;;5028199;28;20069;-59
2022/04/21 03:51:57;;;;;;;2.47;1.60;;;6.90;99.90;;;;;;5030701;28;20064;-60
2022/04/21 03:54:24;;;;;;;3.05;1.38;;;6.90;99.90;;;;;;5036476;28;20128;-59
2022/04/21 03:56:50;;;;;;;2.58;1.60;;;6.80;99.90;;;;;;5039912;28;20096;-59
2022/04/21 03:59:18;;;;;;;2.10;1.35;;;6.80;99.90;;;;;;5039550;28;20073;-59
2022/04/21 04:01:45;;;;;;;2.53;1.85;;;6.80;99.90;;;;;;5038007;28;20145;-59
2022/04/21 04:04:12;;;;;;;3.08;2.08;;;6.80;99.90;;;;;;5034736;28;20055;-59
2022/04/21 04:12:17;;;;;;;2.45;1.48;;;6.80;99.90;;;;;;5031946;28;20509;-59
2022/04/21 04:14:45;;;;;;;2.95;1.52;;;6.80;99.90;;;;;;5038617;28;20053;-59
2022/04/21 04:17:12;;;;;;;2.13;1.42;;;6.70;99.90;;;;;;5035958;28;20141;-59
2022/04/21 04:19:39;;;;;;;2.80;1.88;;;6.70;99.90;;;;;;5038002;28;20054;-60
2022/04/21 04:22:06;;;;;;;3.22;1.95;;;6.60;99.90;;;;;;5031138;28;20164;-59
2022/04/21 04:24:33;;;;;;;2.42;1.60;;;6.60;99.90;;;;;;5032096;28;20697;-59
2022/04/21 04:27:00;;;;;;;2.90;1.60;;;6.60;99.90;;;;;;5031521;28;20106;-59
2022/04/21 04:29:26;;;;;;;2.42;1.77;;;6.50;99.90;;;;;;5039785;28;20168;-60
2022/04/21 04:31:54;;;;;;;2.05;1.50;;;6.50;99.90;;;;;;5036074;28;20068;-59
2022/04/21 04:34:21;;;;;;;2.50;1.73;;;6.50;99.90;;;;;;5035484;28;20052;-60
2022/04/21 04:36:48;;;;;;;2.60;1.77;;;6.50;99.90;;;;;;5039247;28;20136;-59
2022/04/21 04:39:15;;;;;;;2.72;1.75;;;6.50;99.90;;;;;;5032072;28;20152;-59
2022/04/21 04:44:27;;;;;;;4.40;1.95;;;6.50;99.90;;;;;;5034707;28;20452;-59
2022/04/21 04:46:55;;;;;;;4.25;2.33;;;6.50;99.90;;;;;;5038700;28;20140;-61
2022/04/21 04:49:22;;;;;;;3.10;1.95;;;6.50;99.90;;;;;;5033829;28;20655;-59
2022/04/21 04:51:49;;;;;;;3.13;2.08;;;6.50;99.90;;;;;;5035697;28;20053;-61
2022/04/21 04:54:16;;;;;;;2.75;2.08;;;6.50;99.90;;;;;;5031812;28;20277;-58
2022/04/21 04:56:44;;;;;;;2.75;2.00;;;6.40;99.90;;;;;;5029324;28;20232;-59
2022/04/21 04:59:11;;;;;;;2.50;1.88;;;6.40;99.90;;;;;;5034486;28;20129;-59
2022/04/21 05:01:43;;;;;;;2.63;1.98;;;6.40;99.90;;;;;;5018113;28;20137;-59
2022/04/21 05:04:11;;;;;;;2.83;1.65;;;6.40;99.90;;;;;;5011312;28;20065;-59
2022/04/21 05:06:42;;;;;;;2.90;1.90;;;6.40;99.90;;;;;;5007230;28;20129;-59
2022/04/21 05:09:10;;;;;;;2.72;2.05;;;6.40;99.90;;;;;;5035416;28;20091;-59
2022/04/21 05:11:38;;;;;;;2.85;1.90;;;6.40;99.90;;;;;;5027828;28;20053;-59
2022/04/21 05:14:05;;;;;;;2.58;1.90;;;6.40;99.90;;;;;;5028224;28;20080;-59
2022/04/21 05:16:32;;;;;;;3.63;2.17;;;6.40;99.90;;;;;;5029820;28;20132;-59
2022/04/21 05:18:59;;;;;;;3.10;2.33;;;6.40;99.90;;;;;;5032648;28;20052;-59
2022/04/21 05:21:26;;;;;;;3.35;2.10;;;6.50;99.90;;;;;;5030365;28;20175;-59
2022/04/21 05:23:57;;;;;;;2.88;2.10;;;6.50;99.90;;;;;;5017530;28;20111;-60
2022/04/21 05:26:25;;;;;;;3.47;2.08;;;6.50;99.90;;;;;;5018291;28;20081;-59
2022/04/21 05:28:53;;;;;;;3.95;2.40;;;6.40;99.90;;;;;;5017706;28;20131;-59
2022/04/21 05:31:20;;;;;;;2.83;2.22;;;6.50;99.90;;;;;;5001279;28;20602;-59
2022/04/21 05:33:47;;;;;;;3.10;2.25;;;6.50;99.90;;;;;;5007859;28;20073;-60
2022/04/21 05:36:14;;;;;;;2.75;2.10;;;6.50;99.90;;;;;;5007953;28;20164;-59
2022/04/21 05:38:42;;;;;;;2.70;2.03;;;6.50;99.90;;;;;;5022165;28;20136;-60
2022/04/21 05:41:09;;;;;;;4.40;2.90;;;6.50;99.90;;;;;;5016586;28;20140;-59
2022/04/21 05:43:42;;;;;;;4.07;2.60;;;6.60;99.90;;;;;;5007584;28;20084;-59
2022/04/21 05:46:10;;;;;;;3.05;2.20;;;6.60;99.90;;;;;;5006765;28;20062;-59
2022/04/21 05:48:38;;;;;;;4.07;2.63;;;6.60;99.90;;;;;;5010746;28;20096;-59
2022/04/21 05:51:05;;;;;;;3.33;2.42;;;6.70;99.90;;;;;;5007810;28;20715;-59
2022/04/21 05:53:36;;;;;;;4.28;2.33;;;6.70;99.90;;;;;;5017311;28;20049;-60
2022/04/21 05:56:04;;;;;;;3.08;2.30;;;6.70;99.90;;;;;;5000074;28;20140;-59
2022/04/21 05:58:31;;;;;;;3.42;2.25;;;6.70;99.90;;;;;;5002965;28;20081;-59
2022/04/21 06:01:01;;;;;;;3.35;2.20;;;6.80;99.90;;;;;;5011206;28;20128;-60
2022/04/21 06:03:30;;;;;;;3.83;2.35;;;6.80;99.90;;;;;;5005624;28;20131;-59
2022/04/21 06:05:57;;;;;;;3.00;2.00;;;6.90;99.90;;;;;;4997662;28;20057;-60
2022/04/21 06:08:24;;;;;;;3.53;2.50;;;7.00;99.90;;;;;;5011190;28;20147;-59
2022/04/21 06:10:51;;;;;;;2.72;2.13;;;7.00;99.90;;;;;;5017591;28;20077;-60
2022/04/21 06:13:18;;;;;;;2.80;2.17;;;7.10;99.90;;;;;;5017577;28;20137;-59
2022/04/21 06:15:45;;;;;;;4.07;2.33;;;7.10;99.90;;;;;;5003705;28;20061;-58
2022/04/21 06:18:11;;;;;;;3.50;2.08;;;7.20;99.90;;;;;;5000735;28;20137;-60
2022/04/21 06:20:40;;;;;;;3.22;2.17;;;7.30;99.90;;;;;;5016078;28;20238;-60
2022/04/21 06:23:07;;;;;;;2.60;1.80;;;7.30;99.90;;;;;;5017604;28;20084;-58
2022/04/21 06:25:39;;;;;;;3.20;2.10;;;7.30;99.90;;;;;;5008351;28;20214;-60
2022/04/21 06:28:06;;;;;;;2.53;2.15;;;7.40;99.90;;;;;;5015843;28;20144;-60
2022/04/21 06:30:33;;;;;;;2.92;1.92;;;7.50;99.90;;;;;;5014766;28;20505;-59
2022/04/21 06:33:00;;;;;;;3.00;2.10;;;7.60;99.90;;;;;;5016345;28;20226;-60
2022/04/21 06:35:27;;;;;;;3.28;2.20;;;7.70;99.90;;;;;;5015940;28;20132;-59
2022/04/21 06:37:54;;;;;;;3.47;1.98;;;7.70;99.90;;;;;;5015753;28;20436;-60
2022/04/21 06:40:22;;;;;;;2.60;2.05;;;7.80;99.90;;;;;;5014752;28;20745;-60
2022/04/21 06:42:49;;;;;;;2.72;2.15;;;7.90;99.90;;;;;;5015937;28;20056;-60
2022/04/21 06:48:08;;;;;;;3.15;2.20;;;8.10;99.90;;;;;;5016577;28;20139;-60
2022/04/21 06:50:36;;;;;;;3.42;2.53;;;8.20;99.90;;;;;;5016927;28;20589;-59
2022/04/21 06:53:07;;;;;;;3.00;2.00;;;8.20;99.90;;;;;;5017235;28;20132;-60
2022/04/21 06:55:34;;;;;;;2.50;1.83;;;8.30;99.90;;;;;;5017488;28;20093;-61
2022/04/21 06:58:01;;;;;;;2.65;1.70;;;8.40;99.90;;;;;;5017583;28;20354;-60
2022/04/21 07:00:28;;;;;;;2.03;1.67;;;8.50;99.90;;;;;;5017030;28;20088;-60
2022/04/21 07:02:55;;;;;;;3.10;2.13;;;8.60;99.90;;;;;;5017019;28;20123;-60
2022/04/21 07:05:23;;;;;;;3.40;2.80;;;8.70;99.90;;;;;;5017015;28;20548;-61
2022/04/21 07:07:49;;;;;;;2.80;2.35;;;8.80;99.90;;;;;;5016456;28;20093;-60
2022/04/21 07:10:17;;;;;;;4.85;2.97;;;8.90;99.90;;;;;;5017254;28;20132;-60
2022/04/21 07:12:44;;;;;;;6.53;3.60;;;9.10;99.90;;;;;;5016170;28;20108;-60
2022/04/21 07:15:11;;;;;;;4.78;4.00;;;9.20;99.90;;;;;;5009514;28;20187;-60
2022/04/21 07:17:39;;;;;;;6.70;4.80;;;9.30;99.90;;;;;;5007099;28;20144;-61
2022/04/21 07:20:07;;;;;;;7.70;6.05;;;9.40;99.90;;;;;;5015520;28;20524;-60
2022/04/21 07:22:34;;;;;;;7.05;5.90;;;9.50;99.90;;;;;;5009002;28;20160;-60
2022/04/21 07:25:03;;;;;;;7.60;6.22;;;9.70;99.90;;;;;;4991256;28;20357;-60
2022/04/21 07:27:30;;;;;;;6.70;5.75;;;9.80;99.90;;;;;;5009607;28;20140;-60
2022/04/21 07:29:56;;;;;;;7.88;6.50;;;9.90;99.90;;;;;;5026487;28;20077;-60
2022/04/21 07:32:23;;;;;;;9.05;7.68;;;10.00;99.90;;;;;;5011819;28;20540;-60
2022/04/21 07:34:50;;;;;;;9.80;7.45;;;10.10;99.90;;;;;;5012340;28;20257;-60
2022/04/21 07:37:18;;;;;;;7.97;7.18;;;10.20;99.90;;;;;;5042820;28;20135;-60
2022/04/21 07:39:45;;;;;;;9.85;8.23;;;10.30;99.90;;;;;;5041692;28;20564;-60
2022/04/21 07:42:13;;;;;;;9.43;8.15;;;10.40;99.90;;;;;;5042124;28;20147;-60
2022/04/21 07:44:40;;;;;;;9.13;7.60;;;10.50;99.90;;;;;;5024055;28;20053;-60
2022/04/21 07:47:07;;;;;;;8.48;7.35;;;10.60;99.90;;;;;;5021834;28;20500;-60
2022/04/21 07:49:46;;;;;;;7.55;6.75;;;10.70;99.90;;;;;;5022215;28;20449;-60
2022/04/21 07:55:08;;;;;;;6.68;5.88;;;10.90;99.90;;;;;;5003890;28;20128;-60
2022/04/21 07:57:35;;;;;;;8.18;6.57;;;11.00;99.90;;;;;;5003123;28;20537;-59
2022/04/21 08:00:04;;;;;;;7.68;6.70;;;11.10;99.90;;;;;;5016423;28;20456;-59
2022/04/21 08:02:31;;;;;;;10.02;8.23;;;11.20;99.90;;;;;;5021284;28;20227;-60
2022/04/21 08:04:58;;;;;;;7.93;6.72;;;11.40;99.90;;;;;;5003865;28;20430;-59
2022/04/21 08:07:25;;;;;;;10.43;8.02;;;11.50;99.90;;;;;;5001853;28;20172;-59
2022/04/21 08:09:52;;;;;;;9.10;7.78;;;11.60;99.90;;;;;;5015377;28;20080;-59
2022/04/21 08:12:18;;;;;;;7.80;7.00;;;11.70;99.90;;;;;;5020775;28;20524;-59
2022/04/21 08:14:45;;;;;;;7.60;6.63;;;11.70;99.90;;;;;;5020367;28;20132;-59
2022/04/21 08:17:12;;;;;;;8.43;6.50;;;11.90;99.90;;;;;;5019398;28;20069;-59
2022/04/21 08:19:39;;;;;;;8.07;6.32;;;12.00;99.90;;;;;;5013381;28;20061;-60
2022/04/21 08:22:06;;;;;;;8.70;6.82;;;12.10;99.90;;;;;;5006068;28;20120;-60
2022/04/21 08:33:15;;;;;;;7.60;6.80;;;12.40;99.90;;;;;;5015988;28;20481;-59
2022/04/21 08:35:44;;;;;;;5.85;5.25;;;12.50;99.90;;;;;;5021067;28;20050;-59
2022/04/21 08:38:11;;;;;;;7.25;5.40;;;12.60;99.90;;;;;;5012028;28;20046;-59
2022/04/21 08:40:38;;;;;;;6.03;5.32;;;12.70;99.90;;;;;;5008765;28;20124;-59
2022/04/21 08:43:12;;;;;;;6.45;5.68;;;12.80;99.90;;;;;;5022179;28;20143;-59
2022/04/21 08:45:46;;;;;;;7.70;5.95;;;12.90;99.90;;;;;;5021041;28;20129;-59
2022/04/21 08:48:16;;;;;;;5.05;4.55;;;13.00;99.90;;;;;;5024246;28;20050;-59
2022/04/21 08:50:43;;;;;;;5.65;4.95;;;13.20;99.90;;;;;;5012668;28;20274;-59
2022/04/21 08:53:11;;;;;;;5.18;4.53;;;13.30;99.90;;;;;;5014389;28;20065;-59
2022/04/21 08:55:37;;;;;;;7.68;4.53;;;13.40;99.90;;;;;;5037848;28;20272;-58
2022/04/21 08:58:04;;;;;;;6.95;5.45;;;13.50;99.90;;;;;;5021232;28;20076;-59
2022/04/21 09:00:31;;;;;;;6.82;5.35;;;13.60;99.90;;;;;;5022265;28;20107;-59
2022/04/21 09:03:04;;;;;;;6.40;5.80;;;13.70;99.90;;;;;;5015464;28;20049;-59
2022/04/21 09:05:31;;;;;;;6.32;5.72;;;13.80;99.90;;;;;;5010801;28;20393;-59
2022/04/21 09:07:58;;;;;;;5.60;4.85;;;13.90;99.90;;;;;;5007747;28;20092;-59
2022/04/21 09:10:45;;;;;;;6.80;5.90;;;14.00;99.90;;;;;;5035425;28;20144;-59
2022/04/21 09:13:12;;;;;;;7.22;6.18;;;14.00;99.90;;;;;;5034834;28;20063;-58
2022/04/21 09:15:43;;;;;;;6.63;5.60;;;14.10;99.90;;;;;;5042126;28;20933;-59
2022/04/21 09:18:11;;;;;;;7.03;5.88;;;14.10;99.90;;;;;;5042264;28;20073;-59
2022/04/21 09:20:39;;;;;;;7.25;5.60;;;14.20;99.90;;;;;;5024326;28;20140;-59
2022/04/21 09:23:09;;;;;;;5.78;5.22;;;14.30;99.90;;;;;;5019577;28;20132;-59
2022/04/21 09:25:50;;;;;;;4.93;4.22;;;14.40;99.90;;;;;;5020414;28;20492;-59
2022/04/21 09:28:28;;;;;;;6.03;4.65;;;14.50;99.90;;;;;;5015349;28;20092;-59
2022/04/21 09:30:59;;;;;;;4.82;4.32;;;14.50;99.90;;;;;;5033101;28;20301;-59
2022/04/21 09:33:31;;;;;;;6.30;5.57;;;14.60;99.90;;;;;;5030494;28;20049;-59
2022/04/21 09:35:59;;;;;;;7.05;6.28;;;14.60;99.90;;;;;;4999878;28;20046;-60
2022/04/21 09:38:26;;;;;;;6.13;4.90;;;14.60;99.90;;;;;;5002312;28;20141;-59
2022/04/21 09:40:54;;;;;;;5.10;4.60;;;14.70;99.90;;;;;;5018645;28;20152;-60
2022/04/21 09:43:30;;;;;;;5.90;5.30;;;14.70;99.90;;;;;;5024929;28;20049;-59
2022/04/21 09:46:14;;;;;;;5.00;4.50;;;14.70;99.90;;;;;;5026403;28;20272;-60
2022/04/21 09:48:42;;;;;;;6.47;5.28;;;14.80;99.90;;;;;;5006370;28;20168;-60
2022/04/21 09:51:13;;;;;;;5.47;4.60;;;14.90;99.90;;;;;;5023347;28;20064;-60
2022/04/21 09:53:53;;;;;;;6.18;5.57;;;15.00;99.90;;;;;;5023751;28;20153;-60
2022/04/21 09:56:32;;;;;;;6.75;6.05;;;15.10;99.90;;;;;;5018981;28;20136;-60
2022/04/21 09:59:03;;;;;;;8.23;6.78;;;15.10;99.90;;;;;;5020750;28;20445;-60
2022/04/21 10:01:30;;;;;;;7.95;7.15;;;15.10;99.90;;;;;;5015588;28;20400;-60
2022/04/21 10:03:57;;;;;;;7.78;6.97;;;15.10;99.90;;;;;;5013939;28;20076;-60
2022/04/21 10:06:24;;;;;;;7.07;6.30;;;15.20;99.90;;;;;;5004118;28;20367;-60
2022/04/21 10:08:51;;;;;;;6.65;5.80;;;15.30;99.90;;;;;;5004314;28;20478;-60
2022/04/21 10:11:24;;;;;;;7.20;5.53;;;15.40;99.90;;;;;;5017942;28;20077;-60
2022/04/21 10:13:55;;;;;;;9.38;5.50;;;15.60;99.90;;;;;;5017628;28;20054;-60
2022/04/21 10:16:23;;;;;;;6.10;5.50;;;15.70;99.90;;;;;;5022014;28;20516;-60
2022/04/21 10:18:54;;;;;;;8.02;5.05;;;15.80;99.90;;;;;;5011954;28;20061;-60
2022/04/21 10:21:29;;;;;;;6.70;5.40;;;15.90;99.90;;;;;;5013965;28;20175;-60
2022/04/21 10:23:56;;;;;;;4.90;4.40;;;16.00;99.90;;;;;;5015009;28;20136;-60
2022/04/21 10:26:40;;;;;;;4.28;3.63;;;16.10;99.90;;;;;;4999314;28;20800;-60
2022/04/21 10:29:14;;;;;;;4.82;4.15;;;16.30;99.90;;;;;;5015806;28;20073;-60
2022/04/21 10:32:05;;;;;;;6.80;5.38;;;16.40;99.90;;;;;;5020877;28;20045;-60
2022/04/21 10:34:40;;;;;;;5.25;4.57;;;16.30;99.90;;;;;;5021321;28;20646;-59
2022/04/21 10:37:18;;;;;;;7.28;4.50;;;16.40;99.90;;;;;;5015320;28;20096;-59
2022/04/21 10:40:04;;;;;;;4.90;4.38;;;16.40;99.90;;;;;;5012597;28;20576;-59
2022/04/21 10:42:58;;;;;;;5.70;4.85;;;16.40;99.90;;;;;;5022529;28;20169;-59
2022/04/21 10:45:28;;;;;;;;;;;16.50;99.90;;;;;;5019082;28;20453;-59
2022/04/21 10:48:14;;;;;;;6.38;4.40;;;16.60;99.90;;;;;;5009998;28;19937;-59
2022/04/21 10:50:42;;;;;;;4.32;3.83;;;16.50;99.90;;;;;;5018373;28;20045;-59
2022/04/21 10:58:42;;;;;;;6.20;5.57;;;16.60;99.90;;;;;;5023755;28;20053;-59
2022/04/21 11:01:19;;;;;;;8.13;4.65;;;16.60;99.90;;;;;;5024517;28;20159;-59
2022/04/21 11:04:04;;;;;;;5.28;4.05;;;16.60;99.90;;;;;;5021858;28;20505;-59
2022/04/21 11:06:42;;;;;;;5.25;4.20;;;16.60;99.90;;;;;;5020414;28;20076;-59
2022/04/21 11:09:08;;;;;;;4.68;4.28;;;16.60;99.90;;;;;;5022782;28;20476;-60
2022/04/21 11:11:48;;;;;;;6.10;3.72;;;16.70;99.90;;;;;;5021674;28;20132;-59
2022/04/21 11:14:33;;;;;;;5.25;4.15;;;16.70;99.90;;;;;;5022319;28;20436;-59
2022/04/21 11:17:01;;;;;;;6.20;3.85;;;16.70;99.90;;;;;;5024254;28;20188;-59
2022/04/21 11:19:37;;;;;;;4.18;3.35;;;16.90;99.90;;;;;;5025634;28;20088;-59
2022/04/21 11:22:06;;;;;;;5.43;3.47;;;17.00;99.90;;;;;;5026526;28;20043;-59
2022/04/21 11:24:54;;;;;;;5.03;3.63;;;17.10;99.70;;;;;;5024238;28;20099;-59
2022/04/21 11:27:24;;;;;;;3.70;2.90;;;17.30;99.40;;;;;;5024006;28;20116;-59
2022/04/21 11:29:51;;;;;;;4.35;3.50;;;17.50;98.30;;;;;;5027110;28;20045;-60
2022/04/21 11:32:18;;;;;;;4.10;3.35;;;17.60;98.60;;;;;;5025150;28;20045;-59
2022/04/21 11:34:58;;;;;;;8.60;4.50;;;17.80;98.20;;;;;;5025785;28;20493;-60
2022/04/21 11:37:43;;;;;;;4.07;3.17;;;17.90;97.30;;;;;;5026402;28;20128;-60
2022/04/21 11:40:23;;;;;;;4.57;3.08;;;18.00;96.70;;;;;;5026050;28;20136;-60
2022/04/21 11:42:50;;;;;;;4.32;3.45;;;18.20;96.90;;;;;;5026882;28;20084;-60
2022/04/21 11:45:36;;;;;;;3.85;3.40;;;18.20;96.70;;;;;;5026960;28;20595;-60
2022/04/21 11:48:13;;;;;;;3.30;3.00;;;18.30;96.90;;;;;;5026857;28;20481;-61
2022/04/21 11:50:44;;;;;;;4.82;3.38;;;18.50;96.50;;;;;;5012320;28;20133;-60
2022/04/21 11:53:15;;;;;;;3.65;3.17;;;18.50;96.30;;;;;;5020198;28;20104;-61
2022/04/21 11:55:42;;;;;;;3.83;2.70;;;18.50;96.00;;;;;;5007133;28;20101;-61
2022/04/21 11:58:12;;;;;;;4.28;3.22;;;18.70;95.70;;;;;;5020784;28;20140;-61
2022/04/21 12:06:32;;;;;;;3.53;3.22;;;19.10;94.30;;;;;;5021951;28;20144;-61
2022/04/21 12:08:59;;;;;;;4.00;2.83;;;19.10;93.50;;;;;;5017379;28;20473;-60
2022/04/21 12:11:26;;;;;;;3.40;2.45;;;19.30;93.10;;;;;;5029570;28;20060;-60
2022/04/21 12:13:53;;;;;;;3.00;2.30;;;19.40;92.70;;;;;;5019631;28;20156;-61
2022/04/21 12:16:36;;;;;;;3.05;2.30;;;19.50;92.60;;;;;;5015542;28;20133;-60
2022/04/21 12:19:12;;;;;;;3.70;2.22;;;19.60;91.20;;;;;;5018127;28;20061;-60
2022/04/21 12:21:39;;;;;;;3.33;2.28;;;19.70;91.10;;;;;;5018979;28;20559;-60
2022/04/21 12:24:54;;;;;;;2.75;1.95;;;19.80;91.20;;;;;;5011954;28;20141;-60
2022/04/21 12:27:22;;;;;;;3.67;2.42;;;20.10;90.10;;;;;;5002749;28;20176;-60
2022/04/21 12:29:58;;;;;;;2.72;2.42;;;20.30;89.70;;;;;;5009035;28;20123;-60
2022/04/21 12:32:26;;;;;;;3.13;2.60;;;20.40;89.40;;;;;;5009033;28;20524;-61
2022/04/21 12:34:55;;;;;;;2.70;1.90;;;20.70;89.10;;;;;;5029737;28;20252;-60
2022/04/21 12:37:29;;;;;;;3.42;1.65;;;21.00;87.90;;;;;;5003322;28;20053;-60
2022/04/21 12:39:58;;;;;;;2.83;1.52;;;21.10;87.10;;;;;;5012378;28;20330;-60
2022/04/21 12:42:41;;;;;;;2.53;1.63;;;21.30;85.40;;;;;;5013764;28;20492;-60
2022/04/21 12:45:10;;;;;;;1.50;1.25;;;21.30;83.90;;;;;;5030781;28;20506;-60
2022/04/21 12:48:03;;;;;;;1.38;1.20;;;21.50;83.50;;;;;;5005091;28;20137;-61
2022/04/21 12:50:32;;;;;;;1.48;1.38;;;21.70;82.30;;;;;;5018759;28;20304;-60
2022/04/21 12:52:58;;;;;;;1.95;1.40;;;22.10;82.10;;;;;;5011449;28;20049;-60
2022/04/21 12:55:30;;;;;;;1.73;1.35;;;22.00;79.70;;;;;;5021531;28;20084;-60
2022/04/21 12:58:10;;;;;;;3.10;1.65;;;22.20;79.40;;;;;;5010580;28;20077;-60
2022/04/21 13:00:48;;;;;;;1.63;1.38;;;22.20;79.40;;;;;;5012571;28;20058;-60
2022/04/21 13:03:15;;;;;;;2.05;1.48;;;22.20;78.40;;;;;;5009624;28;20128;-60
2022/04/21 13:05:47;;;;;;;2.42;1.67;;;22.30;78.00;;;;;;5007420;28;20053;-60
2022/04/21 13:08:14;;;;;;;2.10;1.20;;;22.30;78.30;;;;;;5018560;28;20058;-60
2022/04/21 13:10:41;;;;;;;2.63;1.67;;;22.40;77.60;;;;;;5016845;28;20124;-60
2022/04/21 13:13:07;;;;;;;1.45;1.33;;;22.30;77.20;;;;;;5009476;28;20124;-60
2022/04/21 13:15:34;;;;;;;1.92;1.27;;;22.50;77.30;;;;;;5017892;28;20393;-60
2022/04/21 13:18:01;;;;;;;1.20;1.05;;;22.70;76.10;;;;;;5017778;28;20394;-60
2022/04/21 13:23:13;;;;;;;1.73;1.13;;;23.10;75.10;;;;;;5011185;28;20120;-60
2022/04/21 13:25:42;;;;;;;2.53;1.65;;;23.00;73.20;;;;;;5038872;28;20053;-60
2022/04/21 13:28:09;;;;;;;2.33;1.60;;;22.90;72.50;;;;;;5031841;28;20049;-60
2022/04/21 13:30:36;;;;;;;3.47;1.15;;;22.70;73.00;;;;;;5014026;28;20056;-60
2022/04/21 13:33:21;;;;;;;1.52;1.20;;;23.30;72.70;;;;;;5023733;28;20049;-60
2022/04/21 13:35:51;;;;;;;2.05;1.30;;;23.40;71.20;;;;;;5014136;28;20449;-60
2022/04/21 13:38:19;;;;;;;1.67;1.40;;;23.30;69.70;;;;;;5006675;28;20057;-60
2022/04/21 13:40:46;;;;;;;3.22;1.25;;;23.30;69.00;;;;;;5025342;28;20607;-60
2022/04/21 13:43:13;;;;;;;1.65;1.23;;;23.10;68.20;;;;;;5015273;28;20129;-60
2022/04/21 13:46:00;;;;;;;1.98;1.20;;;23.20;68.10;;;;;;5017725;28;20045;-60
2022/04/21 13:48:27;;;;;;;2.40;1.45;;;23.30;68.90;;;;;;5016758;28;20057;-60
2022/04/21 13:50:54;;;;;;;1.40;0.80;;;23.90;67.70;;;;;;5015371;28;20448;-60
2022/04/21 13:53:20;;;;;;;1.55;1.30;;;24.00;65.70;;;;;;5008438;28;20063;-61
2022/04/21 13:55:47;;;;;;;1.30;1.13;;;23.90;65.10;;;;;;5019276;28;20107;-60